createdAt,value
2022-10-02T00:02:28.041Z,16.73
2022-10-02T00:05:38.260Z,16.69
2022-10-02T00:08:42.992Z,16.78
2022-10-02T00:11:49.914Z,16.72
2022-10-02T00:14:57.946Z,16.50
2022-10-02T00:18:09.003Z,16.41
2022-10-02T00:21:24.689Z,16.29
2022-10-02T00:24:34.641Z,16.23
2022-10-02T00:27:56.339Z,16.27
2022-10-02T00:31:15.875Z,16.30
2022-10-02T00:34:34.966Z,16.39
2022-10-02T00:37:47.604Z,16.35
2022-10-02T00:41:13.451Z,16.26
2022-10-02T00:44:38.969Z,16.24
2022-10-02T00:47:49.519Z,15.82
2022-10-02T00:51:04.557Z,15.93
2022-10-02T00:54:25.441Z,15.90
2022-10-02T00:57:44.846Z,16.13
2022-10-02T01:01:00.857Z,16.05
2022-10-02T01:04:12.501Z,15.93
2022-10-02T01:07:17.514Z,15.89
2022-10-02T01:10:22.415Z,15.85
2022-10-02T01:13:26.660Z,15.89
2022-10-02T01:16:31.299Z,15.85
2022-10-02T01:19:39.194Z,15.89
2022-10-02T01:22:50.621Z,15.94
2022-10-02T01:25:57.748Z,16.03
2022-10-02T01:29:02.198Z,16.08
2022-10-02T01:32:06.043Z,16.22
2022-10-02T01:35:10.981Z,16.27
2022-10-02T01:38:18.384Z,16.26
2022-10-02T01:41:25.433Z,16.21
2022-10-02T01:44:30.321Z,16.23
2022-10-02T01:47:47.793Z,16.22
2022-10-02T01:51:06.101Z,16.32
2022-10-02T01:54:20.124Z,16.38
2022-10-02T01:57:40.802Z,16.41
2022-10-02T02:01:02.723Z,16.39
2022-10-02T02:04:21.725Z,16.39
2022-10-02T02:07:37.868Z,16.31
2022-10-02T02:10:52.707Z,16.47
2022-10-02T02:14:07.395Z,16.60
2022-10-02T02:17:20.683Z,16.71
2022-10-02T02:20:31.113Z,16.77
2022-10-02T02:23:39.213Z,16.62
2022-10-02T02:26:47.323Z,16.72
2022-10-02T02:29:56.714Z,16.63
2022-10-02T02:33:07.678Z,16.80
2022-10-02T02:36:20.314Z,16.85
2022-10-02T02:39:31.526Z,16.87
2022-10-02T02:42:40.078Z,16.99
2022-10-02T02:45:51.987Z,17.03
2022-10-02T02:49:14.975Z,17.07
2022-10-02T02:52:22.545Z,16.89
2022-10-02T02:55:34.215Z,17.04
2022-10-02T02:58:44.172Z,17.19
2022-10-02T03:01:50.714Z,17.18
2022-10-02T03:04:54.579Z,17.20
2022-10-02T03:08:01.095Z,17.29
2022-10-02T03:11:14.422Z,17.32
2022-10-02T03:14:52.745Z,17.27
2022-10-02T03:18:23.617Z,17.14
2022-10-02T03:21:34.041Z,16.81
2022-10-02T03:24:45.615Z,16.90
2022-10-02T03:27:55.175Z,16.88
2022-10-02T03:31:00.468Z,16.89
2022-10-02T03:34:07.040Z,16.97
2022-10-02T03:37:11.141Z,17.14
2022-10-02T03:40:18.402Z,17.28
2022-10-02T03:43:24.414Z,17.38
2022-10-02T03:46:28.882Z,17.48
2022-10-02T03:49:34.981Z,17.51
2022-10-02T03:52:41.726Z,17.53
2022-10-02T03:55:48.141Z,17.56
2022-10-02T03:58:59.331Z,17.58
2022-10-02T04:02:07.973Z,17.59
2022-10-02T04:05:24.025Z,17.51
2022-10-02T04:08:36.579Z,17.59
2022-10-02T04:11:45.371Z,17.54
2022-10-02T04:14:57.202Z,17.56
2022-10-02T04:18:06.230Z,17.45
2022-10-02T04:21:21.975Z,17.55
2022-10-02T04:24:31.237Z,17.54
2022-10-02T04:27:39.808Z,17.53
2022-10-02T04:30:43.850Z,17.49
2022-10-02T04:33:48.203Z,17.44
2022-10-02T04:37:11.624Z,17.11
2022-10-02T04:40:31.289Z,17.32
2022-10-02T04:43:51.915Z,17.35
2022-10-02T04:47:11.952Z,17.36
2022-10-02T04:50:32.857Z,17.44
2022-10-02T04:53:58.430Z,17.33
2022-10-02T04:57:20.061Z,17.38
2022-10-02T05:00:25.144Z,17.27
2022-10-02T05:03:48.638Z,17.03
2022-10-02T05:07:07.426Z,17.05
2022-10-02T05:10:31.496Z,17.12
2022-10-02T05:13:55.335Z,17.22
2022-10-02T05:17:24.470Z,16.97
2022-10-02T05:21:02.927Z,16.96
2022-10-02T05:24:24.802Z,17.09
2022-10-02T05:27:51.842Z,17.17
2022-10-02T05:31:05.462Z,17.26
2022-10-02T05:34:38.250Z,16.78
2022-10-02T05:37:56.226Z,17.06
2022-10-02T05:41:06.497Z,17.01
2022-10-02T05:44:17.936Z,17.11
2022-10-02T05:47:30.495Z,17.27
2022-10-02T05:50:37.802Z,17.49
2022-10-02T05:53:47.248Z,18.07
2022-10-02T05:56:59.740Z,17.95
2022-10-02T06:00:18.522Z,18.04
2022-10-02T06:03:32.453Z,18.09
2022-10-02T06:06:44.348Z,18.04
2022-10-02T06:09:54.889Z,18.01
2022-10-02T06:13:07.955Z,18.15
2022-10-02T06:16:19.892Z,18.15
2022-10-02T06:19:28.435Z,18.09
2022-10-02T06:22:36.947Z,18.73
2022-10-02T06:25:46.087Z,18.64
2022-10-02T06:28:55.407Z,19.06
2022-10-02T06:32:18.011Z,18.99
2022-10-02T06:35:43.433Z,18.54
2022-10-02T06:39:14.453Z,19.03
2022-10-02T06:42:45.484Z,19.16
2022-10-02T06:46:07.473Z,19.67
2022-10-02T06:49:25.299Z,20.74
2022-10-02T06:52:43.831Z,21.41
2022-10-02T06:55:59.799Z,22.99
2022-10-02T06:59:15.933Z,23.68
2022-10-02T07:02:33.920Z,24.68
2022-10-02T07:06:02.112Z,25.22
2022-10-02T07:09:40.684Z,25.91
2022-10-02T07:12:58.847Z,26.14
2022-10-02T07:16:27.889Z,26.77
2022-10-02T07:19:59.705Z,26.31
2022-10-02T07:23:26.746Z,25.64
2022-10-02T07:26:50.855Z,25.88
2022-10-02T07:30:03.763Z,26.54
2022-10-02T07:33:20.554Z,26.75
2022-10-02T07:36:39.466Z,27.23
2022-10-02T07:40:06.671Z,27.33
2022-10-02T07:43:23.814Z,26.81
2022-10-02T07:46:38.741Z,25.25
2022-10-02T07:49:52.209Z,24.12
2022-10-02T07:53:04.403Z,22.74
2022-10-02T07:56:19.966Z,22.49
2022-10-02T07:59:32.833Z,22.26
2022-10-02T08:02:44.521Z,21.59
2022-10-02T08:05:51.144Z,21.50
2022-10-02T08:09:01.379Z,20.97
2022-10-02T08:12:17.058Z,21.01
2022-10-02T08:15:23.599Z,21.00
2022-10-02T08:18:58.688Z,20.75
2022-10-02T08:22:10.270Z,20.57
2022-10-02T08:25:21.156Z,20.25
2022-10-02T08:28:41.150Z,20.32
2022-10-02T08:31:45.699Z,19.89
2022-10-02T08:34:49.446Z,19.79
2022-10-02T08:38:20.281Z,20.06
2022-10-02T08:41:55.533Z,20.10
2022-10-02T08:45:24.541Z,20.06
2022-10-02T08:49:08.249Z,19.85
2022-10-02T08:52:44.956Z,19.85
2022-10-02T08:56:03.535Z,19.83
2022-10-02T08:59:54.762Z,19.66
2022-10-02T09:03:45.889Z,19.78
2022-10-02T09:07:42.517Z,19.81
2022-10-02T09:11:19.419Z,19.82
2022-10-02T09:14:55.573Z,20.03
2022-10-02T09:18:16.906Z,19.95
2022-10-02T09:21:42.924Z,19.99
2022-10-02T09:25:02.900Z,20.06
2022-10-02T09:28:42.995Z,20.07
2022-10-02T09:32:21.789Z,20.18
2022-10-02T09:35:55.918Z,20.11
2022-10-02T09:39:29.926Z,20.20
2022-10-02T09:43:12.214Z,20.40
2022-10-02T09:46:52.939Z,20.38
2022-10-02T09:50:28.528Z,20.33
2022-10-02T09:53:51.086Z,20.32
2022-10-02T09:57:21.140Z,20.34
2022-10-02T10:00:37.926Z,20.59
2022-10-02T10:04:47.934Z,20.43
2022-10-02T10:08:37.639Z,20.55
2022-10-02T10:12:19.373Z,20.76
2022-10-02T10:16:04.650Z,20.94
2022-10-02T10:19:47.910Z,21.11
2022-10-02T10:23:35.906Z,21.26
2022-10-02T10:27:17.159Z,21.39
2022-10-02T10:30:37.624Z,21.37
2022-10-02T10:34:08.803Z,21.46
2022-10-02T10:37:47.101Z,21.32
2022-10-02T10:41:11.443Z,21.53
2022-10-02T10:48:52.790Z,21.15
2022-10-02T10:52:26.793Z,21.11
2022-10-02T10:55:59.218Z,21.16
2022-10-02T10:59:25.026Z,21.23
2022-10-02T11:02:54.791Z,21.07
2022-10-02T11:06:54.783Z,20.75
2022-10-02T11:10:25.597Z,20.75
2022-10-02T11:13:58.450Z,20.51
2022-10-02T11:17:31.387Z,20.64
2022-10-02T11:21:28.242Z,20.79
2022-10-02T11:25:13.171Z,20.81
2022-10-02T11:28:37.684Z,20.97
2022-10-02T11:32:05.427Z,20.94
2022-10-02T11:35:23.551Z,21.22
2022-10-02T11:43:30.699Z,20.81
2022-10-02T11:46:53.685Z,20.79
2022-10-02T11:50:33.015Z,20.83
2022-10-02T11:54:02.457Z,20.68
2022-10-02T11:57:34.616Z,20.59
2022-10-02T12:01:28.506Z,20.55
2022-10-02T12:04:46.692Z,20.73
2022-10-02T12:07:58.618Z,20.85
2022-10-02T12:11:17.475Z,20.93
2022-10-02T12:14:35.655Z,20.88
2022-10-02T12:18:22.029Z,20.77
2022-10-02T12:22:01.029Z,20.88
2022-10-02T12:25:39.324Z,20.92
2022-10-02T12:28:56.220Z,20.95
2022-10-02T12:32:16.583Z,21.04
2022-10-02T12:35:38.484Z,20.93
2022-10-02T12:38:55.608Z,20.96
2022-10-02T12:42:17.063Z,20.94
2022-10-02T12:45:58.516Z,20.97
2022-10-02T12:49:34.484Z,20.88
2022-10-02T12:53:07.641Z,21.03
2022-10-02T12:56:55.343Z,21.15
2022-10-02T13:00:05.746Z,21.03
2022-10-02T13:03:30.365Z,20.96
2022-10-02T13:11:59.678Z,21.03
2022-10-02T13:15:26.178Z,21.04
2022-10-02T13:19:19.892Z,20.98
2022-10-02T13:22:33.995Z,21.06
2022-10-02T13:25:47.014Z,21.10
2022-10-02T13:29:22.252Z,21.07
2022-10-02T13:32:44.214Z,21.16
2022-10-02T13:36:08.851Z,21.15
2022-10-02T13:39:45.615Z,21.04
2022-10-02T13:43:49.613Z,21.11
2022-10-02T13:47:41.981Z,21.17
2022-10-02T13:50:58.319Z,21.12
2022-10-02T13:54:25.021Z,21.11
2022-10-02T13:57:44.635Z,21.18
2022-10-02T14:01:00.266Z,21.23
2022-10-02T14:04:23.614Z,21.15
2022-10-02T14:07:40.773Z,21.06
2022-10-02T14:10:57.522Z,21.14
2022-10-02T14:14:15.944Z,21.19
2022-10-02T14:17:36.051Z,21.28
2022-10-02T14:20:53.600Z,21.27
2022-10-02T14:24:46.755Z,21.26
2022-10-02T14:28:27.058Z,21.29
2022-10-02T14:32:06.813Z,21.33
2022-10-02T14:35:37.642Z,21.49
2022-10-02T14:39:04.599Z,21.45
2022-10-02T14:42:23.634Z,21.43
2022-10-02T14:46:17.821Z,21.28
2022-10-02T14:49:49.013Z,21.23
2022-10-02T14:53:13.868Z,21.15
2022-10-02T14:56:49.640Z,21.19
2022-10-02T15:00:13.791Z,21.03
2022-10-02T15:03:33.963Z,20.85
2022-10-02T15:07:05.387Z,20.94
2022-10-02T15:10:17.660Z,20.89
2022-10-02T15:13:34.739Z,20.90
2022-10-02T15:17:04.888Z,20.87
2022-10-02T15:20:26.943Z,20.71
2022-10-02T15:23:43.451Z,20.66
2022-10-02T15:26:51.913Z,20.55
2022-10-02T15:30:16.502Z,20.58
2022-10-02T15:33:30.660Z,20.49
2022-10-02T15:36:52.307Z,20.42
2022-10-02T15:40:08.943Z,20.51
2022-10-02T15:43:34.779Z,20.47
2022-10-02T15:46:54.292Z,20.58
2022-10-02T15:50:12.642Z,20.61
2022-10-02T15:53:36.449Z,20.65
2022-10-02T15:56:52.577Z,20.63
2022-10-02T16:00:11.296Z,20.57
2022-10-02T16:03:24.491Z,20.46
2022-10-02T16:06:50.827Z,20.45
2022-10-02T16:10:07.673Z,20.41
2022-10-02T16:13:35.042Z,20.22
2022-10-02T16:17:06.761Z,20.10
2022-10-02T16:20:54.105Z,19.95
2022-10-02T16:24:20.465Z,19.71
2022-10-02T16:27:49.206Z,19.67
2022-10-02T16:31:27.064Z,19.59
2022-10-02T16:34:43.495Z,19.40
2022-10-02T16:37:49.173Z,19.33
2022-10-02T16:40:59.642Z,19.01
2022-10-02T16:44:22.986Z,18.99
2022-10-02T16:47:30.438Z,18.80
2022-10-02T16:50:48.758Z,18.76
2022-10-02T16:54:02.302Z,18.65
2022-10-02T16:57:21.078Z,18.57
2022-10-02T17:00:26.749Z,18.39
2022-10-02T17:03:35.754Z,18.30
2022-10-02T17:06:43.231Z,18.29
2022-10-02T17:09:50.708Z,18.29
2022-10-02T17:13:07.001Z,18.24
2022-10-02T17:16:20.935Z,18.15
2022-10-02T17:19:31.787Z,18.03
2022-10-02T17:22:41.708Z,17.75
2022-10-02T17:25:55.355Z,17.66
2022-10-02T17:29:09.594Z,17.35
2022-10-02T17:32:13.536Z,17.27
2022-10-02T17:35:20.379Z,17.06
2022-10-02T17:38:50.513Z,16.93
2022-10-02T17:41:59.899Z,17.06
2022-10-02T17:45:19.614Z,17.12
2022-10-02T17:48:32.922Z,17.23
2022-10-02T17:51:53.058Z,17.06
2022-10-02T17:55:32.223Z,16.80
2022-10-02T17:58:47.170Z,16.95
2022-10-02T18:02:04.755Z,16.98
2022-10-02T18:05:27.270Z,17.00
2022-10-02T18:08:45.499Z,16.95
2022-10-02T18:12:07.071Z,16.87
2022-10-02T18:15:27.746Z,16.80
2022-10-02T18:18:42.244Z,16.75
2022-10-02T18:21:58.671Z,16.55
2022-10-02T18:25:27.632Z,16.72
2022-10-02T18:28:57.303Z,16.65
2022-10-02T18:32:22.137Z,16.22
2022-10-02T18:35:53.541Z,16.34
2022-10-02T18:39:01.068Z,16.41
2022-10-02T18:42:33.917Z,16.27
2022-10-02T18:45:47.963Z,16.26
2022-10-02T18:49:22.646Z,15.99
2022-10-02T18:52:44.187Z,16.16
2022-10-02T18:56:03.593Z,16.11
2022-10-02T18:59:21.309Z,15.84
2022-10-02T19:02:41.776Z,15.67
2022-10-02T19:05:52.038Z,15.70
2022-10-02T19:09:06.341Z,15.72
2022-10-02T19:12:18.671Z,15.61
2022-10-02T19:15:27.236Z,15.47
2022-10-02T19:18:33.025Z,15.64
2022-10-02T19:21:39.233Z,15.61
2022-10-02T19:24:48.775Z,15.57
2022-10-02T19:27:56.427Z,15.65
2022-10-02T19:31:04.071Z,15.63
2022-10-02T19:34:16.019Z,15.56
2022-10-02T19:37:23.029Z,15.35
2022-10-02T19:40:34.647Z,15.36
2022-10-02T19:43:49.555Z,15.22
2022-10-02T19:46:57.363Z,15.24
2022-10-02T19:50:04.158Z,15.35
2022-10-02T19:53:21.814Z,15.07
2022-10-02T19:56:32.096Z,15.12
2022-10-02T19:59:41.987Z,15.03
2022-10-02T20:02:48.957Z,15.10
2022-10-02T20:05:57.847Z,14.84
2022-10-02T20:09:13.684Z,14.90
2022-10-02T20:12:25.406Z,14.94
2022-10-02T20:15:53.679Z,15.08
2022-10-02T20:18:58.257Z,15.07
2022-10-02T20:22:09.068Z,15.15
2022-10-02T20:25:18.992Z,14.94
2022-10-02T20:28:46.512Z,15.01
2022-10-02T20:31:55.458Z,14.81
2022-10-02T20:35:08.553Z,14.86
2022-10-02T20:38:20.596Z,14.78
2022-10-02T20:41:28.379Z,14.87
2022-10-02T20:44:36.358Z,14.87
2022-10-02T20:48:35.783Z,14.73
2022-10-02T20:52:17.831Z,14.55
2022-10-02T20:55:28.847Z,14.45
2022-10-02T20:59:06.335Z,14.48
2022-10-02T21:02:29.025Z,14.35
2022-10-02T21:06:00.519Z,14.50
2022-10-02T21:09:33.338Z,14.36
2022-10-02T21:13:12.884Z,14.16
2022-10-02T21:16:52.881Z,14.35
2022-10-02T21:20:50.920Z,14.35
2022-10-02T21:24:47.774Z,14.23
2022-10-02T21:28:32.257Z,14.21
2022-10-02T21:31:58.602Z,14.23
2022-10-02T21:35:37.662Z,14.35
2022-10-02T21:38:57.991Z,14.19
2022-10-02T21:42:37.108Z,14.34
2022-10-02T21:45:58.727Z,14.39
2022-10-02T21:49:47.324Z,14.19
2022-10-02T21:53:43.971Z,14.11
2022-10-02T21:57:38.570Z,14.09
2022-10-02T22:01:06.524Z,13.93
2022-10-02T22:04:40.590Z,13.82
2022-10-02T22:07:54.838Z,13.80
2022-10-02T22:11:09.795Z,13.90
2022-10-02T22:14:19.471Z,13.99
2022-10-02T22:17:33.744Z,13.96
2022-10-02T22:20:52.996Z,13.86
2022-10-02T22:24:21.041Z,13.87
2022-10-02T22:27:56.624Z,13.78
2022-10-02T22:31:36.669Z,13.66
2022-10-02T22:34:51.794Z,13.80
2022-10-02T22:38:10.787Z,13.72
2022-10-02T22:41:25.814Z,13.77
2022-10-02T22:44:40.182Z,13.66
2022-10-02T22:47:54.235Z,13.62
2022-10-02T22:51:03.473Z,13.68
2022-10-02T22:54:19.558Z,13.58
2022-10-02T22:57:34.266Z,13.49
2022-10-02T23:00:55.410Z,13.58
2022-10-02T23:04:03.272Z,13.37
2022-10-02T23:07:16.501Z,13.33
2022-10-02T23:10:32.708Z,13.39
2022-10-02T23:13:45.586Z,13.28
2022-10-02T23:17:02.572Z,13.27
2022-10-02T23:20:16.111Z,13.23
2022-10-02T23:23:24.811Z,13.08
2022-10-02T23:26:34.688Z,13.10
2022-10-02T23:29:50.994Z,13.27
2022-10-02T23:33:04.147Z,12.93
2022-10-02T23:36:20.444Z,13.00
2022-10-02T23:39:36.202Z,13.10
2022-10-02T23:42:45.372Z,13.15
2022-10-02T23:45:57.948Z,13.04
2022-10-02T23:49:03.712Z,13.08
2022-10-02T23:52:36.313Z,13.18
2022-10-02T23:55:56.347Z,13.20
2022-10-02T23:59:18.411Z,13.19
